Time;durP1;ratioP1;P1;durP2;ratioP2;P2;SDS_P1;SDS_P2;PMS_P1;PMS_P2;Temp;Humidity;BMP_temperature;BMP_pressure;BME280_temperature;BME280_humidity;BME280_pressure;Samples;Min_cycle;Max_cycle;Signal;HPM_P1;HPM_P2
2022/05/01 00:00:05;;;;;;;15.80;9.60;;;;;;;10.08;71.05;102391.22;5208677;28;20037;-80
2022/05/01 00:02:36;;;;;;;14.30;9.83;;;;;;;9.84;71.67;102390.25;5208754;28;20397;-79
2022/05/01 00:05:08;;;;;;;10.77;9.57;;;;;;;9.91;72.18;102386.53;5207527;28;20299;-80
2022/05/01 00:07:39;;;;;;;11.80;9.97;;;;;;;10.03;71.95;102391.38;5208228;28;20053;-79
2022/05/01 00:10:10;;;;;;;11.17;10.07;;;;;;;10.18;70.50;102386.53;5208780;28;20014;-81
2022/05/01 00:12:42;;;;;;;14.40;10.10;;;;;;;10.20;70.98;102389.09;5208797;28;20125;-79
2022/05/01 00:15:13;;;;;;;10.33;8.77;;;;;;;9.92;71.83;102394.34;5223327;28;20160;-80
2022/05/01 00:17:44;;;;;;;14.57;10.97;;;;;;;9.89;72.56;102399.69;5207537;28;20038;-79
2022/05/01 00:20:16;;;;;;;10.27;9.20;;;;;;;10.10;71.49;102388.53;5208219;28;20492;-80
2022/05/01 00:22:47;;;;;;;13.57;10.47;;;;;;;9.81;72.47;102391.19;5208669;28;20022;-78
2022/05/01 00:25:18;;;;;;;16.47;9.87;;;;;;;9.84;72.18;102383.25;5211027;28;20037;-78
2022/05/01 00:27:49;;;;;;;12.00;9.50;;;;;;;9.84;72.33;102388.50;5209398;28;20037;-79
2022/05/01 00:30:21;;;;;;;12.53;10.73;;;;;;;10.01;71.92;102387.94;5208910;28;20033;-79
2022/05/01 00:38:33;;;;;;;14.30;10.43;;;;;;;9.84;72.09;102371.94;5208138;28;20045;-79
2022/05/01 00:41:11;;;;;;;11.70;9.87;;;;;;;9.79;72.20;102382.56;5207817;28;20053;-78
2022/05/01 00:44:03;;;;;;;13.37;10.43;;;;;;;9.95;71.37;102387.28;5207964;28;20024;-78
2022/05/01 00:46:36;;;;;;;13.00;9.03;;;;;;;9.98;71.84;102385.44;5207756;28;20030;-79
2022/05/01 00:49:15;;;;;;;11.57;10.20;;;;;;;9.85;71.70;102371.88;5205341;28;20018;-78
2022/05/01 00:51:55;;;;;;;12.53;9.83;;;;;;;9.81;72.57;102380.72;5208898;28;20062;-78
2022/05/01 00:54:31;;;;;;;14.00;10.27;;;;;;;9.90;71.48;102369.97;5207900;28;20057;-79
2022/05/01 00:57:05;;;;;;;12.80;9.77;;;;;;;9.79;72.07;102372.09;5208125;28;20064;-78
2022/05/01 00:59:37;;;;;;;13.02;10.73;;;;;;;9.95;71.48;102366.34;5206725;28;20041;-79
2022/05/01 01:02:10;;;;;;;13.30;10.63;;;;;;;9.90;72.65;102369.97;5207353;28;20038;-78
2022/05/01 01:04:42;;;;;;;12.87;10.27;;;;;;;9.98;71.88;102367.13;5206692;28;20046;-78
2022/05/01 01:07:14;;;;;;;13.27;10.70;;;;;;;9.73;72.63;102367.03;5208346;28;20088;-78
2022/05/01 01:09:45;;;;;;;12.60;10.10;;;;;;;9.72;73.04;102370.56;5210026;28;20105;-78
2022/05/01 01:15:14;;;;;;;11.80;9.53;;;;;;;9.67;73.07;102374.16;5207187;28;20034;-78
2022/05/01 01:17:46;;;;;;;12.07;10.73;;;;;;;9.73;73.10;102367.91;5204274;28;20033;-79
2022/05/01 01:20:18;;;;;;;14.07;10.30;;;;;;;9.82;72.67;102369.38;5206935;28;20018;-78
2022/05/01 01:22:51;;;;;;;13.27;11.17;;;;;;;9.69;73.39;102361.03;5208250;28;20045;-76
2022/05/01 01:25:29;;;;;;;12.37;10.50;;;;;;;9.68;73.37;102362.81;5206898;28;20456;-78
2022/05/01 01:28:03;;;;;;;12.27;9.77;;;;;;;9.51;73.65;102367.72;5206341;28;20128;-78
2022/05/01 01:33:25;;;;;;;11.73;10.53;;;;;;;9.61;73.11;102358.69;5206601;28;19925;-79
2022/05/01 01:36:03;;;;;;;12.53;10.30;;;;;;;9.58;73.80;102357.91;5205541;28;20022;-78
2022/05/01 01:38:34;;;;;;;12.37;10.77;;;;;;;9.42;73.77;102361.00;5204644;28;20040;-78
2022/05/01 01:41:10;;;;;;;12.17;10.67;;;;;;;9.56;73.71;102356.19;5222107;28;20408;-79
2022/05/01 01:43:43;;;;;;;13.33;10.07;;;;;;;9.49;73.92;102361.66;5207435;28;21671;-78
2022/05/01 01:46:15;;;;;;;13.00;10.83;;;;;;;9.44;73.88;102357.44;5205857;28;20033;-79
2022/05/01 01:48:47;;;;;;;14.70;10.43;;;;;;;9.40;73.65;102355.84;5206120;28;20022;-78
2022/05/01 01:51:19;;;;;;;11.63;10.43;;;;;;;9.37;74.10;102355.94;5206769;28;20030;-79
2022/05/01 01:53:52;;;;;;;14.13;11.07;;;;;;;9.39;73.85;102359.31;5206910;28;20617;-77
2022/05/01 01:56:23;;;;;;;14.30;11.80;;;;;;;9.31;74.37;102353.47;5206495;28;20026;-78
2022/05/01 01:58:55;;;;;;;15.10;11.33;;;;;;;9.68;73.21;102354.09;5206232;28;20088;-78
2022/05/01 02:01:26;;;;;;;13.53;10.97;;;;;;;9.73;72.94;102359.19;5205993;28;20040;-78
2022/05/01 02:03:57;;;;;;;14.37;10.67;;;;;;;9.37;74.39;102350.69;5205229;28;20076;-78
2022/05/01 02:06:28;;;;;;;14.47;11.43;;;;;;;9.70;73.10;102360.16;5206708;28;20425;-78
2022/05/01 02:09:06;;;;;;;15.03;11.27;;;;;;;9.71;73.46;102358.38;5205104;28;21448;-78
2022/05/01 02:11:37;;;;;;;14.97;12.03;;;;;;;9.68;73.14;102351.50;5206388;28;20117;-77
2022/05/01 02:14:10;;;;;;;19.10;12.33;;;;;;;9.52;74.76;102361.56;5207025;28;20473;-78
2022/05/01 02:16:41;;;;;;;13.23;11.83;;;;;;;9.66;74.09;102350.69;5206668;28;20052;-78
2022/05/01 02:19:13;;;;;;;19.33;12.87;;;;;;;9.42;75.23;102354.03;5205746;28;20037;-78
2022/05/01 02:21:44;;;;;;;12.80;11.50;;;;;;;9.48;75.09;102357.34;5207764;28;20038;-79
2022/05/01 02:24:15;;;;;;;13.23;11.93;;;;;;;9.60;74.10;102346.50;5205925;28;20351;-78
2022/05/01 02:26:47;;;;;;;16.10;11.53;;;;;;;9.44;74.71;102349.59;5206794;28;20033;-78
2022/05/01 02:29:19;;;;;;;16.67;11.90;;;;;;;9.60;74.25;102350.88;5206325;28;20326;-79
2022/05/01 02:31:53;;;;;;;13.37;11.33;;;;;;;9.64;74.41;102342.88;5206570;28;20040;-77
2022/05/01 02:34:25;;;;;;;13.65;12.15;;;;;;;9.46;75.78;102338.25;5205732;28;20659;-78
2022/05/01 02:36:57;;;;;;;16.10;11.63;;;;;;;9.57;74.73;102330.91;5206495;28;20029;-79
2022/05/01 02:39:28;;;;;;;16.30;12.33;;;;;;;9.63;74.58;102337.69;5203984;28;20472;-78
2022/05/01 02:42:00;;;;;;;16.90;11.90;;;;;;;9.67;73.87;102332.31;5206752;28;20022;-74
2022/05/01 02:44:31;;;;;;;13.27;11.33;;;;;;;9.60;74.12;102322.94;5206847;28;20025;-78
2022/05/01 02:47:02;;;;;;;16.87;13.67;;;;;;;9.46;75.12;102333.00;5206001;28;20034;-78
2022/05/01 02:49:35;;;;;;;17.80;11.77;;;;;;;9.56;74.58;102326.59;5209673;28;20025;-78
2022/05/01 02:52:07;;;;;;;15.60;12.60;;;;;;;9.45;75.29;102324.28;5207846;28;20033;-78
2022/05/01 02:54:38;;;;;;;16.77;12.50;;;;;;;9.22;75.43;102327.59;5209020;28;20065;-78
2022/05/01 02:57:09;;;;;;;16.40;12.30;;;;;;;9.25;76.02;102335.38;5207841;28;20026;-77
2022/05/01 02:59:41;;;;;;;13.37;11.80;;;;;;;9.50;74.79;102326.75;5210046;28;20034;-77
2022/05/01 03:02:12;;;;;;;18.83;12.80;;;;;;;9.27;75.14;102323.97;5209730;28;20758;-78
2022/05/01 03:04:45;;;;;;;14.90;12.10;;;;;;;9.28;75.43;102330.06;5208881;28;20045;-78
2022/05/01 03:07:17;;;;;;;17.00;12.10;;;;;;;9.39;75.48;102325.34;5209814;28;20101;-78
2022/05/01 03:09:48;;;;;;;17.93;13.37;;;;;;;9.38;75.41;102323.63;5223996;28;20120;-78
2022/05/01 03:12:21;;;;;;;14.47;11.67;;;;;;;9.44;75.16;102322.59;5207813;28;20034;-76
2022/05/01 03:14:52;;;;;;;16.50;12.47;;;;;;;9.01;76.97;102322.13;5209946;28;20113;-77
2022/05/01 03:17:24;;;;;;;14.50;12.40;;;;;;;8.90;77.18;102323.28;5206565;28;20124;-72
2022/05/01 03:22:45;;;;;;;19.80;13.03;;;;;;;9.29;75.35;102323.91;5214272;28;20471;-78
2022/05/01 03:25:16;;;;;;;16.10;12.07;;;;;;;9.25;75.83;102317.09;5214168;28;20117;-78
2022/05/01 03:27:47;;;;;;;17.23;12.93;;;;;;;8.96;75.89;102317.03;5208603;28;20037;-78
2022/05/01 03:30:20;;;;;;;15.70;13.27;;;;;;;8.91;76.77;102317.19;5210992;28;20057;-78
2022/05/01 03:32:51;;;;;;;14.87;13.33;;;;;;;9.16;75.76;102316.44;5208359;28;20439;-77
2022/05/01 03:35:23;;;;;;;16.53;13.30;;;;;;;8.83;77.25;102311.31;5209232;28;20026;-72
2022/05/01 03:37:55;;;;;;;16.50;12.73;;;;;;;9.15;75.79;102312.13;5210017;28;20123;-78
2022/05/01 03:40:26;;;;;;;14.77;13.13;;;;;;;8.93;77.00;102307.53;5214264;28;20029;-78
2022/05/01 03:42:57;;;;;;;16.97;13.57;;;;;;;8.79;77.48;102305.31;5209786;28;20076;-78
2022/05/01 03:45:29;;;;;;;17.07;13.73;;;;;;;8.75;77.58;102305.44;5209179;28;20412;-79
2022/05/01 03:48:00;;;;;;;16.70;14.50;;;;;;;8.70;77.19;102306.44;5209387;28;20030;-77
2022/05/01 03:50:32;;;;;;;16.83;13.77;;;;;;;8.70;77.30;102302.97;5209913;28;20033;-78
2022/05/01 03:53:04;;;;;;;17.43;13.93;;;;;;;8.51;79.01;102302.59;5208915;28;20038;-79
2022/05/01 03:55:36;;;;;;;17.70;14.07;;;;;;;8.79;77.55;102301.84;5209736;28;20121;-78
2022/05/01 03:58:07;;;;;;;18.37;13.70;;;;;;;8.80;77.18;102299.19;5208733;28;20507;-78
2022/05/01 04:00:39;;;;;;;16.77;12.93;;;;;;;8.80;77.24;102304.41;5207972;28;20038;-78
2022/05/01 04:03:12;;;;;;;15.77;13.93;;;;;;;8.90;76.71;102315.44;5207395;28;20034;-77
2022/05/01 04:05:43;;;;;;;15.70;13.77;;;;;;;8.80;77.34;102308.78;5208874;28;20038;-78
2022/05/01 04:08:15;;;;;;;17.03;13.73;;;;;;;8.57;77.87;102302.47;5208925;28;20108;-77
2022/05/01 04:10:47;;;;;;;18.03;14.33;;;;;;;8.70;77.38;102303.84;5208618;28;20484;-78
2022/05/01 04:13:18;;;;;;;18.57;14.07;;;;;;;8.77;77.31;102311.47;5207535;28;20412;-78
2022/05/01 04:15:49;;;;;;;19.70;15.03;;;;;;;8.39;78.96;102304.66;5208911;28;20033;-78
2022/05/01 04:18:21;;;;;;;17.43;15.60;;;;;;;8.73;77.42;102304.66;5207041;28;20034;-77
2022/05/01 04:20:52;;;;;;;18.40;15.87;;;;;;;8.52;78.18;102306.94;5207760;28;20033;-78
2022/05/01 04:23:24;;;;;;;18.13;14.93;;;;;;;8.68;77.44;102310.84;5207981;28;20033;-77
2022/05/01 04:25:55;;;;;;;21.37;16.70;;;;;;;8.26;78.58;102311.06;5207985;28;20045;-78
2022/05/01 04:28:26;;;;;;;20.07;16.50;;;;;;;8.21;78.90;102301.63;5208464;28;20060;-78
2022/05/01 04:30:58;;;;;;;18.83;16.83;;;;;;;8.23;79.28;102305.06;5208706;28;20040;-78
2022/05/01 04:33:29;;;;;;;19.07;16.90;;;;;;;8.13;79.95;102311.44;5206838;28;20540;-78
2022/05/01 04:36:00;;;;;;;17.90;16.00;;;;;;;8.21;79.03;102300.78;5209195;28;20034;-75
2022/05/01 04:38:31;;;;;;;22.47;19.13;;;;;;;8.01;80.12;102309.13;5208012;28;20093;-77
2022/05/01 04:41:04;;;;;;;19.87;17.13;;;;;;;8.09;79.75;102304.56;5206744;28;20096;-78
2022/05/01 04:43:36;;;;;;;21.03;16.77;;;;;;;7.90;80.44;102302.41;5208166;28;20037;-79
2022/05/01 04:46:08;;;;;;;18.77;16.77;;;;;;;8.03;80.03;102308.16;5206160;28;20103;-78
2022/05/01 04:48:39;;;;;;;23.43;18.37;;;;;;;7.90;80.67;102298.94;5205453;28;20076;-78
2022/05/01 04:51:10;;;;;;;21.40;17.63;;;;;;;7.94;80.43;102298.00;5207869;28;20092;-78
2022/05/01 04:53:41;;;;;;;24.13;18.23;;;;;;;8.13;80.04;102308.81;5207835;28;20038;-78
2022/05/01 04:59:07;;;;;;;24.47;19.43;;;;;;;7.93;81.67;102310.16;5207860;28;20484;-78
2022/05/01 05:01:39;;;;;;;22.83;17.90;;;;;;;7.98;81.25;102318.72;5207626;28;20458;-79
2022/05/01 05:04:10;;;;;;;21.60;17.47;;;;;;;8.33;79.44;102315.25;5208480;28;20140;-78
2022/05/01 05:06:41;;;;;;;20.73;18.53;;;;;;;8.14;80.66;102314.88;5209995;28;20571;-78
2022/05/01 05:12:03;;;;;;;22.80;19.63;;;;;;;8.04;81.22;102312.50;5206215;28;20034;-78
2022/05/01 05:14:35;;;;;;;22.53;20.27;;;;;;;8.06;81.00;102317.69;5208380;28;20593;-78
2022/05/01 05:17:09;;;;;;;24.67;19.73;;;;;;;8.34;80.12;102316.97;5206507;28;20030;-78
2022/05/01 05:19:40;;;;;;;23.37;19.70;;;;;;;8.20;80.78;102312.94;5206356;28;20041;-77
2022/05/01 05:22:12;;;;;;;23.57;21.00;;;;;;;7.96;80.99;102317.91;5207511;28;20311;-77
2022/05/01 05:24:43;;;;;;;24.47;21.83;;;;;;;8.14;80.63;102318.34;5207386;28;20136;-77
2022/05/01 05:27:15;;;;;;;23.93;20.73;;;;;;;8.09;81.26;102323.69;5207381;28;20041;-78
2022/05/01 05:29:47;;;;;;;25.70;20.20;;;;;;;8.20;80.55;102326.00;5206969;28;20038;-79
2022/05/01 05:32:20;;;;;;;22.57;20.07;;;;;;;8.15;80.89;102320.03;5206329;28;20026;-78
2022/05/01 05:34:51;;;;;;;25.67;22.03;;;;;;;8.06;81.32;102329.00;5205829;28;20033;-78
2022/05/01 05:37:23;;;;;;;25.50;21.20;;;;;;;8.26;80.82;102334.56;5206653;28;20026;-78
2022/05/01 05:39:54;;;;;;;26.87;22.00;;;;;;;8.20;80.96;102323.38;5205508;28;20132;-78
2022/05/01 05:42:25;;;;;;;22.70;20.37;;;;;;;8.23;80.80;102333.78;5206527;28;20503;-79
2022/05/01 05:44:56;;;;;;;24.37;21.60;;;;;;;8.21;81.59;102338.16;5207055;28;20030;-78
2022/05/01 05:47:28;;;;;;;26.40;21.20;;;;;;;8.29;81.40;102334.50;5205780;28;20038;-78
2022/05/01 05:50:00;;;;;;;23.47;21.03;;;;;;;8.34;81.54;102340.47;5206619;28;20033;-77
2022/05/01 05:52:32;;;;;;;27.07;22.33;;;;;;;8.39;81.13;102332.50;5205022;28;20038;-76
2022/05/01 05:55:04;;;;;;;22.10;19.80;;;;;;;8.53;80.73;102339.97;5206929;28;20102;-77
2022/05/01 05:57:35;;;;;;;27.57;20.33;;;;;;;8.44;80.75;102339.34;5206941;28;20034;-79
2022/05/01 06:00:07;;;;;;;23.77;20.97;;;;;;;8.50;80.60;102340.91;5206340;28;20026;-78
2022/05/01 06:02:38;;;;;;;27.83;21.53;;;;;;;8.47;81.64;102348.81;5205749;28;20106;-78
2022/05/01 06:05:09;;;;;;;23.60;21.03;;;;;;;8.52;80.55;102339.09;5203595;28;20042;-78
2022/05/01 06:07:40;;;;;;;25.27;20.30;;;;;;;8.64;80.15;102337.94;5206440;28;20030;-76
2022/05/01 06:10:12;;;;;;;23.40;20.57;;;;;;;8.76;80.05;102338.53;5204713;28;20034;-78
2022/05/01 06:12:44;;;;;;;23.83;21.23;;;;;;;8.85;79.20;102337.41;5206760;28;20026;-78
2022/05/01 06:15:15;;;;;;;22.40;20.00;;;;;;;8.85;79.14;102340.84;5205679;28;20501;-76
2022/05/01 06:17:47;;;;;;;24.20;21.53;;;;;;;8.79;79.52;102344.50;5204424;28;20053;-79
2022/05/01 06:20:18;;;;;;;26.83;20.13;;;;;;;8.89;80.28;102349.47;5222426;28;20045;-78
2022/05/01 06:22:50;;;;;;;24.20;21.03;;;;;;;9.02;79.25;102344.75;5207876;28;20006;-78
2022/05/01 06:25:21;;;;;;;26.23;21.90;;;;;;;9.04;79.45;102345.56;5210937;28;20030;-78
2022/05/01 06:27:53;;;;;;;23.00;20.50;;;;;;;9.18;78.94;102346.00;5210830;28;20477;-78
2022/05/01 06:30:24;;;;;;;26.70;20.67;;;;;;;9.15;80.12;102353.06;5211086;28;20038;-79
2022/05/01 06:32:55;;;;;;;24.13;21.33;;;;;;;9.29;79.46;102353.53;5209660;28;20097;-79
2022/05/01 06:35:31;;;;;;;22.83;20.00;;;;;;;9.29;78.56;102350.91;5209698;28;20033;-78
2022/05/01 06:38:02;;;;;;;25.80;21.17;;;;;;;9.31;79.43;102337.78;5210024;28;20041;-78
2022/05/01 06:40:35;;;;;;;24.40;20.00;;;;;;;9.56;78.76;102350.97;5211067;28;20038;-78
2022/05/01 06:43:07;;;;;;;22.90;20.50;;;;;;;9.71;77.21;102353.13;5210773;28;20045;-79
2022/05/01 06:45:40;;;;;;;24.47;19.30;;;;;;;9.79;76.64;102349.38;5209572;28;20030;-75
2022/05/01 06:48:11;;;;;;;24.13;19.23;;;;;;;9.90;76.61;102358.63;5212035;28;20408;-77
2022/05/01 06:50:43;;;;;;;25.37;19.83;;;;;;;9.86;77.11;102357.03;5213844;28;20030;-78
2022/05/01 06:53:15;;;;;;;21.87;18.20;;;;;;;10.08;74.96;102357.19;5213774;28;20084;-78
2022/05/01 06:55:46;;;;;;;23.30;19.63;;;;;;;10.27;74.34;102351.31;5213424;28;20040;-78
2022/05/01 06:58:18;;;;;;;20.03;17.70;;;;;;;10.27;74.25;102353.94;5213181;28;20026;-78
2022/05/01 07:00:52;;;;;;;18.53;16.53;;;;;;;10.31;72.70;102352.94;5213928;28;20100;-78
2022/05/01 07:03:23;;;;;;;23.27;19.47;;;;;;;10.49;72.25;102353.25;5212081;28;20022;-70
2022/05/01 07:05:54;;;;;;;21.23;18.33;;;;;;;10.55;73.35;102352.16;5213156;28;20042;-78
2022/05/01 07:08:26;;;;;;;20.00;17.70;;;;;;;10.61;70.60;102351.94;5213467;28;20026;-79
2022/05/01 07:10:57;;;;;;;23.30;17.53;;;;;;;10.77;71.02;102345.22;5208837;28;20026;-78
2022/05/01 07:13:28;;;;;;;21.63;18.30;;;;;;;11.08;70.32;102350.25;5214954;28;20104;-79
2022/05/01 07:15:59;;;;;;;21.10;17.40;;;;;;;11.34;69.34;102344.00;5214753;28;20026;-77
2022/05/01 07:18:31;;;;;;;19.77;16.37;;;;;;;11.54;68.38;102362.47;5212512;28;20038;-78
2022/05/01 07:21:03;;;;;;;21.20;17.77;;;;;;;11.54;67.07;102365.97;5212177;28;20041;-78
2022/05/01 07:23:34;;;;;;;20.30;16.50;;;;;;;11.45;67.05;102356.69;5213181;28;20022;-78
2022/05/01 07:26:05;;;;;;;19.83;16.87;;;;;;;11.47;67.38;102336.50;5211446;28;20046;-76
2022/05/01 07:28:36;;;;;;;20.20;16.10;;;;;;;11.55;65.58;102351.09;5213296;28;20105;-78
2022/05/01 07:31:08;;;;;;;17.93;16.10;;;;;;;11.58;66.49;102350.94;5212085;28;20034;-79
2022/05/01 07:33:39;;;;;;;18.53;15.50;;;;;;;11.62;66.34;102353.38;5211938;28;20124;-78
2022/05/01 07:36:11;;;;;;;20.20;16.10;;;;;;;11.60;65.81;102350.00;5211977;28;20029;-78
2022/05/01 07:38:42;;;;;;;18.13;15.10;;;;;;;11.90;65.06;102356.69;5212553;28;20038;-78
2022/05/01 07:41:13;;;;;;;16.10;14.43;;;;;;;11.94;64.37;102357.38;5212362;28;20228;-79
2022/05/01 07:43:45;;;;;;;17.07;14.63;;;;;;;12.05;64.54;102355.19;5211016;28;20026;-78
2022/05/01 07:46:16;;;;;;;16.83;14.07;;;;;;;11.96;63.96;102345.91;5209858;28;20030;-78
2022/05/01 07:48:48;;;;;;;16.23;13.37;;;;;;;12.18;62.05;102357.31;5209569;28;20041;-78
2022/05/01 07:51:19;;;;;;;15.60;11.40;;;;;;;12.49;62.03;102358.63;5212188;28;20044;-78
2022/05/01 07:53:53;;;;;;;15.33;12.60;;;;;;;12.49;61.61;102361.25;5212348;28;20475;-78
2022/05/01 07:56:25;;;;;;;12.63;11.40;;;;;;;12.73;61.54;102358.47;5209023;28;20080;-79
2022/05/01 07:58:57;;;;;;;18.77;11.77;;;;;;;13.42;61.97;102360.59;5212707;28;20030;-79
2022/05/01 08:01:29;;;;;;;13.53;11.53;;;;;;;14.16;58.61;102352.66;5211597;28;20034;-77
2022/05/01 08:06:50;;;;;;;15.47;11.07;;;;;;;15.71;53.20;102349.66;5212285;28;20505;-79
2022/05/01 08:09:22;;;;;;;12.30;8.50;;;;;;;16.32;51.43;102336.44;5214651;28;20117;-76
2022/05/01 08:11:53;;;;;;;11.07;7.93;;;;;;;16.73;48.47;102354.28;5211703;28;20045;-78
2022/05/01 08:14:25;;;;;;;14.77;8.20;;;;;;;17.45;47.28;102347.19;5211096;28;20041;-78
2022/05/01 08:16:56;;;;;;;9.77;7.83;;;;;;;17.36;45.93;102341.53;5211513;28;20168;-78
2022/05/01 08:22:17;;;;;;;11.37;8.20;;;;;;;18.40;43.50;102335.56;5211565;28;20545;-79
2022/05/01 08:24:48;;;;;;;10.57;8.07;;;;;;;18.58;43.28;102341.41;5226826;28;20045;-82
2022/05/01 08:27:20;;;;;;;11.67;7.47;;;;;;;18.96;41.79;102341.41;5212199;28;20068;-83
2022/05/01 08:29:51;;;;;;;9.82;7.10;;;;;;;19.31;39.59;102338.03;5226910;28;20028;-81
2022/05/01 08:32:22;;;;;;;7.93;6.75;;;;;;;19.72;38.52;102337.72;5210406;28;20033;-83
2022/05/01 08:34:54;;;;;;;9.00;6.13;;;;;;;19.71;37.52;102330.69;5209846;28;20026;-82
2022/05/01 08:37:25;;;;;;;7.30;4.75;;;;;;;20.23;37.00;102330.31;5210031;28;20384;-76
2022/05/01 08:39:56;;;;;;;6.85;5.82;;;;;;;20.53;36.83;102338.69;5211838;28;20037;-75
2022/05/01 08:42:30;;;;;;;6.78;5.35;;;;;;;20.91;34.74;102339.22;5210344;28;20044;-80
2022/05/01 08:45:03;;;;;;;6.50;5.15;;;;;;;20.88;34.71;102345.66;5210761;28;20041;-76
2022/05/01 08:47:49;;;;;;;8.70;5.95;;;;;;;21.39;35.29;102330.06;5213529;28;20017;-81
2022/05/01 08:50:21;;;;;;;6.40;4.72;;;;;;;21.59;32.65;102332.84;5207679;28;20028;-77
2022/05/01 08:52:54;;;;;;;8.75;5.15;;;;;;;21.88;32.80;102342.94;5208269;28;20070;-73
2022/05/01 08:55:25;;;;;;;5.03;2.95;;;;;;;22.41;28.98;102334.88;5208732;28;20123;-82
2022/05/01 08:57:59;;;;;;;5.88;4.28;;;;;;;22.34;30.33;102334.59;5210348;28;20042;-84
2022/05/01 09:00:31;;;;;;;5.80;4.68;;;;;;;22.56;29.70;102335.38;5206922;28;20018;-80
2022/05/01 09:03:04;;;;;;;7.03;4.97;;;;;;;21.76;30.69;102342.09;5209891;28;20029;-84
2022/05/01 09:05:35;;;;;;;7.53;3.80;;;;;;;20.97;30.19;102333.47;5203329;28;20078;-84
2022/05/01 09:08:07;;;;;;;6.40;3.95;;;;;;;20.57;30.96;102336.63;5196277;28;20088;-84
2022/05/01 09:10:42;;;;;;;4.95;4.10;;;;;;;20.05;30.99;102335.28;5199186;28;20040;-85
2022/05/01 09:13:14;;;;;;;7.60;4.47;;;;;;;19.32;33.37;102321.13;5200328;28;20034;-83
2022/05/01 09:15:46;;;;;;;6.25;4.35;;;;;;;18.78;32.30;102331.16;5199161;28;20026;-82
2022/05/01 09:18:18;;;;;;;8.43;4.65;;;;;;;18.97;33.00;102340.47;5194127;28;20512;-85
2022/05/01 09:21:04;;;;;;;7.10;4.50;;;;;;;19.26;33.77;102336.66;5189455;28;20069;-84
2022/05/01 09:23:46;;;;;;;9.00;5.17;;;;;;;18.94;33.84;102330.06;5195033;28;20069;-83
2022/05/01 09:26:19;;;;;;;6.23;4.90;;;;;;;17.62;34.22;102341.63;5197450;28;20149;-86
2022/05/01 09:28:54;;;;;;;7.53;5.27;;;;;;;18.38;33.97;102335.69;5197413;28;20034;-82
2022/05/01 09:31:50;;;;;;;6.27;4.73;;;;;;;19.18;35.44;102329.28;5196671;28;20120;-83
2022/05/01 09:34:23;;;;;;;7.90;5.60;;;;;;;19.73;33.40;102302.19;5196892;28;20396;-85
2022/05/01 09:36:55;;;;;;;6.43;5.63;;;;;;;20.38;31.36;102332.75;5194706;28;20030;-82
2022/05/01 09:39:32;;;;;;;6.33;5.10;;;;;;;20.18;31.56;102333.34;5208450;28;20092;-83
2022/05/01 09:42:15;;;;;;;11.80;5.30;;;;;;;20.31;31.98;102330.59;5198596;28;20877;-83
2022/05/01 09:45:07;;;;;;;9.90;5.07;;;;;;;20.88;32.37;102334.16;5199994;28;20041;-83
2022/05/01 09:47:44;;;;;;;7.30;5.00;;;;;;;21.07;31.94;102327.41;5195651;28;20705;-82
2022/05/01 09:50:16;;;;;;;6.57;5.20;;;;;;;21.92;29.00;102332.84;5178477;28;20180;-79
2022/05/01 09:52:59;;;;;;;8.68;4.93;;;;;;;22.05;30.54;102331.78;5197786;28;20038;-83
2022/05/01 09:55:30;;;;;;;7.07;5.25;;;;;;;22.29;26.91;102334.13;5198425;28;20120;-82
2022/05/01 09:58:06;;;;;;;6.45;5.00;;;;;;;22.42;28.11;102325.91;5197311;28;20033;-82
2022/05/01 10:00:38;;;;;;;7.35;4.78;;;;;;;21.98;28.14;102331.47;5203627;28;20065;-82
2022/05/01 10:03:33;;;;;;;6.88;5.18;;;;;;;22.07;28.88;102329.81;5201121;28;20088;-82
2022/05/01 10:06:06;;;;;;;6.65;5.68;;;;;;;21.45;28.01;102325.19;5198116;28;20670;-81
2022/05/01 10:08:40;;;;;;;7.32;4.97;;;;;;;21.22;28.88;102326.13;5197275;28;20127;-81
2022/05/01 10:11:17;;;;;;;9.68;5.63;;;;;;;20.15;29.38;102328.28;5199915;28;20064;-78
2022/05/01 10:13:49;;;;;;;5.93;4.80;;;;;;;20.63;29.25;102330.81;5201382;28;20497;-82
2022/05/01 10:16:20;;;;;;;7.30;5.45;;;;;;;20.02;30.28;102315.03;5200805;28;20097;-80
2022/05/01 10:18:52;;;;;;;7.63;5.67;;;;;;;19.34;30.86;102307.72;5199461;28;20497;-86
2022/05/01 10:21:24;;;;;;;7.50;5.40;;;;;;;19.88;30.33;102312.63;5200538;28;20109;-74
2022/05/01 10:23:56;;;;;;;7.53;5.10;;;;;;;19.31;31.92;102314.13;5199923;28;20045;-83
2022/05/01 10:26:31;;;;;;;7.50;5.20;;;;;;;19.20;30.90;102322.03;5197749;28;20485;-84
2022/05/01 10:29:10;;;;;;;8.00;5.40;;;;;;;18.93;32.66;102315.09;5196538;28;20041;-83
2022/05/01 10:34:51;;;;;;;8.40;6.00;;;;;;;18.88;31.56;102309.28;5207131;28;20042;-86
2022/05/01 10:37:38;;;;;;;9.47;5.97;;;;;;;18.88;32.89;102302.16;5211341;28;20531;-85
2022/05/01 10:40:10;;;;;;;7.60;5.20;;;;;;;18.66;32.40;102305.53;5223484;28;20032;-84
2022/05/01 10:42:46;;;;;;;7.90;5.23;;;;;;;18.93;31.53;102307.13;5210698;28;20030;-83
2022/05/01 10:45:20;;;;;;;6.00;5.37;;;;;;;18.39;32.96;102299.41;5212864;28;20408;-83
2022/05/01 10:47:55;;;;;;;;;;;;;;;19.38;32.14;102303.03;5210569;28;20045;-86
2022/05/01 10:50:28;;;;;;;6.72;6.07;;;;;;;18.57;31.46;102305.19;5211628;28;19920;-85
2022/05/01 10:53:08;;;;;;;6.97;5.83;;;;;;;18.78;32.44;102299.31;5211705;28;20041;-74
2022/05/01 10:55:52;;;;;;;6.60;5.13;;;;;;;18.29;32.18;102291.25;5213034;28;20089;-81
2022/05/01 10:58:26;;;;;;;7.85;6.15;;;;;;;17.92;32.79;102293.75;5209353;28;20492;-81
2022/05/01 11:00:58;;;;;;;7.38;5.47;;;;;;;17.78;32.79;102287.59;5210432;28;20032;-80
2022/05/01 11:03:32;;;;;;;10.33;6.10;;;;;;;17.62;33.24;102286.00;5211457;28;20030;-81
2022/05/01 11:06:04;;;;;;;12.83;6.53;;;;;;;17.99;32.77;102284.44;5210890;28;20034;-81
2022/05/01 11:08:38;;;;;;;7.80;5.60;;;;;;;17.65;33.16;102283.13;5211149;28;20503;-80
2022/05/01 11:11:10;;;;;;;9.52;6.18;;;;;;;17.21;33.81;102284.31;5211222;28;20006;-79
2022/05/01 11:13:42;;;;;;;7.50;5.97;;;;;;;17.58;34.21;102276.53;5212390;28;20424;-80
2022/05/01 11:16:14;;;;;;;12.87;5.80;;;;;;;17.25;34.04;102280.47;5212422;28;20037;-80
2022/05/01 11:18:45;;;;;;;10.27;5.93;;;;;;;18.02;33.20;102269.19;5224950;28;20034;-78
2022/05/01 11:21:19;;;;;;;14.57;6.10;;;;;;;17.74;32.61;102278.16;5209419;28;20786;-80
2022/05/01 11:23:57;;;;;;;7.10;6.18;;;;;;;18.22;32.74;102263.47;5210760;28;20113;-80
2022/05/01 11:26:29;;;;;;;8.07;5.47;;;;;;;17.83;32.30;102259.00;5209957;28;20041;-78
2022/05/01 11:29:13;;;;;;;8.03;6.87;;;;;;;18.35;32.68;102259.00;5206599;28;20138;-80
2022/05/01 11:31:46;;;;;;;11.55;6.55;;;;;;;18.17;32.12;102261.13;5214561;28;20029;-80
2022/05/01 11:34:19;;;;;;;6.07;5.47;;;;;;;17.92;32.90;102254.00;5211869;28;20529;-82
2022/05/01 11:37:09;;;;;;;10.07;6.10;;;;;;;17.99;34.20;102248.19;5212738;28;20055;-81
2022/05/01 11:39:47;;;;;;;7.07;5.90;;;;;;;18.52;32.42;102254.28;5206955;28;20064;-84
2022/05/01 11:42:21;;;;;;;8.77;6.37;;;;;;;18.29;32.53;102253.28;5212973;28;20501;-84
2022/05/01 11:44:56;;;;;;;7.70;6.22;;;;;;;17.44;32.32;102243.03;5211820;28;20026;-82
2022/05/01 11:47:31;;;;;;;6.43;5.83;;;;;;;17.68;33.28;102244.97;5212269;28;20079;-82
2022/05/01 11:50:03;;;;;;;8.87;5.73;;;;;;;18.22;32.36;102242.25;5186090;28;20033;-83
2022/05/01 11:52:36;;;;;;;9.07;6.60;;;;;;;18.26;31.91;102231.31;5212480;28;20440;-83
2022/05/01 11:55:08;;;;;;;8.90;6.30;;;;;;;17.79;32.69;102231.00;5211067;28;20033;-83
2022/05/01 12:03:27;;;;;;;7.47;6.37;;;;;;;17.01;34.10;102234.34;5203102;28;20042;-83
2022/05/01 12:05:58;;;;;;;11.53;6.53;;;;;;;17.74;33.16;102218.06;5214039;28;20078;-82
2022/05/01 12:08:29;;;;;;;8.40;5.83;;;;;;;17.04;34.08;102230.63;5208810;28;20975;-82
2022/05/01 12:11:01;;;;;;;7.57;6.33;;;;;;;17.45;33.98;102223.56;5209030;28;20460;-82
2022/05/01 12:13:32;;;;;;;10.53;6.03;;;;;;;17.56;34.51;102229.94;5210746;28;20084;-81
2022/05/01 12:16:03;;;;;;;7.20;6.27;;;;;;;17.33;34.56;102224.38;5208169;28;20385;-80
2022/05/01 12:18:35;;;;;;;8.33;6.50;;;;;;;17.33;34.64;102222.56;5209246;28;20029;-80